Time;durP1;ratioP1;P1;durP2;ratioP2;P2;SDS_P1;SDS_P2;PMS_P1;PMS_P2;Temp;Humidity;BMP_temperature;BMP_pressure;BME280_temperature;BME280_humidity;BME280_pressure;Samples;Min_cycle;Max_cycle;Signal;HPM_P1;HPM_P2
2023/10/02 00:02:40;;;;;;;;;;;17.40;99.90;;;;;;12525313;28;20363;-34
2023/10/02 00:08:42;;;;;;;;;;;17.30;99.90;;;;;;12541457;28;19928;-34
2023/10/02 00:14:45;;;;;;;;;;;17.00;99.90;;;;;;12525701;28;20399;-34
2023/10/02 00:21:17;;;;;;;;;;;17.20;99.90;;;;;;12546111;28;19932;-34
2023/10/02 00:27:09;;;;;;;;;;;17.10;99.90;;;;;;12545838;28;19931;-35
2023/10/02 00:33:11;;;;;;;;;;;17.00;99.90;;;;;;12536122;28;20280;-34
2023/10/02 00:39:30;;;;;;;;;;;17.20;99.90;;;;;;12468998;28;19933;-34
2023/10/02 00:45:38;;;;;;;;;;;17.40;99.90;;;;;;12516171;28;19944;-34
2023/10/02 00:51:41;;;;;;;;;;;17.40;99.90;;;;;;12514800;28;19978;-34
2023/10/02 00:57:45;;;;;;;;;;;17.10;99.90;;;;;;12542663;28;19928;-34
2023/10/02 01:10:11;;;;;;;;;;;16.90;99.90;;;;;;12505501;28;20451;-34
2023/10/02 01:16:17;;;;;;;;;;;16.90;99.90;;;;;;12547101;28;20327;-35
2023/10/02 01:22:28;;;;;;;;;;;16.90;99.90;;;;;;12548859;28;19955;-34
2023/10/02 01:28:51;;;;;;;;;;;16.90;99.90;;;;;;12549382;28;20303;-34
2023/10/02 01:34:53;;;;;;;;;;;17.00;99.90;;;;;;12547212;28;19924;-34
2023/10/02 01:41:10;;;;;;;;;;;17.00;99.90;;;;;;12545140;28;19928;-34
2023/10/02 01:47:12;;;;;;;;;;;17.00;99.90;;;;;;12509069;28;19928;-35
2023/10/02 01:53:28;;;;;;;;;;;17.00;99.90;;;;;;12538975;28;19929;-34
2023/10/02 01:59:31;;;;;;;;;;;17.00;99.90;;;;;;12526136;28;19928;-35
2023/10/02 02:05:34;;;;;;;;;;;17.00;99.90;;;;;;12533811;28;19929;-35
2023/10/02 02:11:36;;;;;;;;;;;17.00;99.90;;;;;;12542922;28;19929;-35
2023/10/02 02:17:37;;;;;;;;;;;17.00;99.90;;;;;;12545601;28;19978;-35
2023/10/02 02:23:39;;;;;;;;;;;17.00;99.90;;;;;;12539665;28;20431;-34
2023/10/02 02:29:41;;;;;;;;;;;17.00;99.90;;;;;;12545236;28;20015;-35
2023/10/02 02:35:44;;;;;;;;;;;17.00;99.90;;;;;;12547707;28;20060;-35
2023/10/02 02:41:47;;;;;;;;;;;17.00;99.90;;;;;;12531084;28;19933;-35
2023/10/02 02:47:51;;;;;;;;;;;17.00;99.90;;;;;;12510094;28;19928;-35
2023/10/02 02:53:53;;;;;;;;;;;16.60;99.90;;;;;;12546517;28;19928;-35
2023/10/02 03:06:23;;;;;;;;;;;16.40;99.90;;;;;;12545774;28;19928;-35
2023/10/02 03:12:25;;;;;;;;;;;16.50;99.90;;;;;;12549084;28;20637;-35
2023/10/02 03:18:36;;;;;;;;;;;16.60;99.90;;;;;;12544644;28;20023;-35
2023/10/02 03:24:39;;;;;;;;;;;16.40;99.90;;;;;;12537815;28;20408;-35
2023/10/02 03:30:43;;;;;;;;;;;16.40;99.90;;;;;;12543798;28;19933;-35
2023/10/02 03:36:47;;;;;;;;;;;16.20;99.90;;;;;;12554333;28;19978;-35
2023/10/02 03:42:50;;;;;;;;;;;16.10;99.90;;;;;;12520847;28;19924;-35
2023/10/02 03:48:58;;;;;;;;;;;16.20;99.90;;;;;;12551454;28;20222;-35
2023/10/02 03:55:14;;;;;;;;;;;16.40;99.90;;;;;;12547354;28;19985;-34
2023/10/02 04:01:26;;;;;;;;;;;16.50;99.90;;;;;;12544247;28;20450;-35
2023/10/02 04:07:30;;;;;;;;;;;16.70;99.90;;;;;;12548170;28;20015;-35
2023/10/02 04:13:34;;;;;;;;;;;16.70;99.90;;;;;;12529579;28;19928;-35
2023/10/02 04:20:05;;;;;;;;;;;16.70;99.90;;;;;;12543339;28;20359;-35
2023/10/02 04:26:05;;;;;;;;;;;16.50;99.90;;;;;;12543879;28;19928;-35
2023/10/02 04:32:15;;;;;;;;;;;16.10;99.90;;;;;;12539384;28;19928;-35
2023/10/02 04:38:47;;;;;;;;;;;16.00;99.90;;;;;;12552913;28;20680;-35
2023/10/02 04:44:44;;;;;;;;;;;15.80;99.90;;;;;;12513402;28;20015;-34
2023/10/02 04:50:46;;;;;;;;;;;15.80;99.90;;;;;;12546841;28;19951;-35
2023/10/02 04:57:08;;;;;;;;;;;15.60;99.90;;;;;;12544189;28;19934;-34
2023/10/02 05:03:09;;;;;;;;;;;15.60;99.90;;;;;;12551558;28;19924;-35
2023/10/02 05:09:20;;;;;;;;;;;15.80;99.90;;;;;;12546974;28;19929;-35
2023/10/02 05:15:23;;;;;;;;;;;16.10;99.90;;;;;;12543575;28;19936;-35
2023/10/02 05:21:38;;;;;;;;;;;16.20;99.90;;;;;;12541987;28;19929;-34
2023/10/02 05:27:40;;;;;;;;;;;16.30;99.90;;;;;;12541211;28;19928;-35
2023/10/02 05:33:43;;;;;;;;;;;16.40;99.90;;;;;;12550981;28;19929;-35
2023/10/02 05:39:46;;;;;;;;;;;16.60;99.90;;;;;;12543310;28;20363;-35
2023/10/02 05:45:50;;;;;;;;;;;16.30;99.90;;;;;;12514751;28;19928;-35
2023/10/02 05:51:55;;;;;;;;;;;16.10;99.90;;;;;;12545443;28;20388;-35
2023/10/02 05:57:58;;;;;;;;;;;16.10;99.90;;;;;;12544288;28;19989;-34
2023/10/02 06:04:00;;;;;;;;;;;16.00;99.90;;;;;;12542004;28;20369;-34
2023/10/02 06:10:07;;;;;;;;;;;16.00;99.90;;;;;;12534486;28;19935;-35
2023/10/02 06:16:09;;;;;;;;;;;15.90;99.90;;;;;;12550103;28;19928;-34
2023/10/02 06:22:14;;;;;;;;;;;15.90;99.90;;;;;;12545504;28;20498;-34
2023/10/02 06:28:28;;;;;;;;;;;16.00;99.90;;;;;;12540197;28;19929;-34
2023/10/02 06:34:36;;;;;;;;;;;16.00;99.90;;;;;;12548444;28;19937;-34
2023/10/02 06:40:40;;;;;;;;;;;16.00;99.90;;;;;;12549329;28;20462;-35
2023/10/02 06:46:55;;;;;;;;;;;15.90;99.90;;;;;;12512135;28;19935;-35
2023/10/02 06:52:59;;;;;;;;;;;15.80;99.90;;;;;;12538772;28;19928;-35
2023/10/02 06:59:01;;;;;;;;;;;15.90;99.90;;;;;;12540660;28;19928;-35
2023/10/02 07:05:07;;;;;;;;;;;16.20;99.90;;;;;;12532632;28;20339;-35
2023/10/02 07:11:10;;;;;;;;;;;16.60;99.90;;;;;;12533186;28;19924;-34
2023/10/02 07:17:23;;;;;;;;;;;16.70;99.90;;;;;;12555152;28;19952;-35
2023/10/02 07:23:24;;;;;;;;;;;16.90;99.90;;;;;;12556940;28;19931;-35
2023/10/02 07:29:37;;;;;;;;;;;17.10;99.90;;;;;;12557919;28;20269;-35
2023/10/02 07:35:52;;;;;;;;;;;17.40;99.90;;;;;;12553339;28;19963;-35
2023/10/02 07:42:00;;;;;;;;;;;17.60;99.90;;;;;;12545222;28;21291;-34
2023/10/02 07:48:08;;;;;;;;;;;17.80;99.90;;;;;;12510391;28;20024;-35
2023/10/02 07:54:13;;;;;;;;;;;18.20;99.90;;;;;;12549213;28;20296;-35
2023/10/02 08:00:37;;;;;;;;;;;18.60;99.90;;;;;;12539891;28;19935;-35
2023/10/02 08:06:44;;;;;;;;;;;19.00;99.90;;;;;;12555738;28;20289;-35
2023/10/02 08:12:57;;;;;;;;;;;19.30;99.90;;;;;;12545325;28;20183;-35
2023/10/02 08:19:01;;;;;;;;;;;19.40;99.90;;;;;;12552660;28;20019;-35
2023/10/02 08:25:04;;;;;;;;;;;19.50;99.90;;;;;;12544378;28;19978;-35
2023/10/02 08:31:13;;;;;;;;;;;19.70;99.90;;;;;;12539571;28;19929;-35
2023/10/02 08:37:15;;;;;;;;;;;19.80;99.90;;;;;;12552947;28;20474;-35
2023/10/02 08:43:18;;;;;;;;;;;20.10;99.90;;;;;;12514821;28;19928;-35
2023/10/02 08:49:22;;;;;;;;;;;20.20;99.90;;;;;;12545896;28;20480;-34
2023/10/02 08:55:33;;;;;;;;;;;20.30;99.90;;;;;;12553917;28;19934;-35
2023/10/02 09:01:35;;;;;;;;;;;20.60;99.90;;;;;;12545483;28;19928;-35
2023/10/02 09:08:01;;;;;;;;;;;20.90;99.90;;;;;;12546584;28;19939;-35
2023/10/02 09:20:38;;;;;;;;;;;21.10;99.90;;;;;;12550533;28;20026;-35
2023/10/02 09:26:43;;;;;;;;;;;21.30;99.90;;;;;;12541581;28;20027;-35
2023/10/02 09:32:52;;;;;;;;;;;21.40;99.90;;;;;;12545622;28;19933;-35
2023/10/02 09:39:35;;;;;;;;;;;21.60;99.90;;;;;;12550139;28;20441;-35
2023/10/02 09:45:46;;;;;;;;;;;21.80;99.90;;;;;;12498558;28;19968;-35
2023/10/02 09:52:23;;;;;;;;;;;21.80;99.90;;;;;;12539805;28;20361;-35
2023/10/02 09:58:30;;;;;;;;;;;22.00;99.90;;;;;;12546860;28;19985;-35
2023/10/02 10:05:02;;;;;;;;;;;22.20;99.90;;;;;;12541534;28;19936;-35
2023/10/02 10:11:13;;;;;;;;;;;22.30;99.90;;;;;;12540651;28;20441;-35
2023/10/02 10:17:16;;;;;;;;;;;22.50;99.90;;;;;;12553479;28;19994;-35
2023/10/02 10:23:31;;;;;;;;;;;22.60;99.90;;;;;;12545509;28;19929;-35
2023/10/02 10:29:37;;;;;;;;;;;22.40;99.90;;;;;;12542942;28;20201;-34
2023/10/02 10:35:51;;;;;;;;;;;22.50;99.90;;;;;;12552921;28;19929;-35
2023/10/02 10:42:00;;;;;;;;;;;23.00;99.90;;;;;;12539735;28;19925;-36
2023/10/02 10:48:02;;;;;;;;;;;23.40;99.90;;;;;;12543283;28;19936;-35
2023/10/02 10:54:18;;;;;;;;;;;23.50;99.90;;;;;;12545211;28;19924;-35
2023/10/02 11:00:40;;;;;;;;;;;23.50;99.90;;;;;;12549283;28;20071;-36
2023/10/02 11:06:44;;;;;;;;;;;23.80;99.90;;;;;;12553871;28;20420;-35
2023/10/02 11:12:57;;;;;;;;;;;24.00;99.90;;;;;;12544147;28;19978;-35
2023/10/02 11:19:10;;;;;;;;;;;24.00;99.90;;;;;;12562604;28;19928;-36
2023/10/02 11:25:18;;;;;;;;;;;23.70;99.90;;;;;;12519813;28;19932;-35
2023/10/02 11:31:32;;;;;;;;;;;23.70;99.90;;;;;;12552352;28;20024;-35
2023/10/02 11:37:33;;;;;;;;;;;23.60;99.90;;;;;;12552082;28;20467;-35
2023/10/02 11:43:35;;;;;;;;;;;23.60;99.90;;;;;;12522136;28;20475;-35
2023/10/02 11:49:37;;;;;;;;;;;23.50;99.90;;;;;;12549482;28;20028;-35
2023/10/02 11:55:39;;;;;;;;;;;23.40;99.90;;;;;;12546349;28;20498;-35
2023/10/02 12:01:43;;;;;;;;;;;23.30;99.90;;;;;;12542447;28;19928;-35
2023/10/02 12:07:45;;;;;;;;;;;23.30;99.90;;;;;;12554421;28;19929;-35
2023/10/02 12:13:47;;;;;;;;;;;23.30;99.90;;;;;;12554853;28;19955;-36
2023/10/02 12:19:51;;;;;;;;;;;23.20;99.90;;;;;;12547699;28;20304;-35
2023/10/02 12:25:55;;;;;;;;;;;23.30;99.90;;;;;;12547682;28;19986;-35
2023/10/02 12:32:00;;;;;;;;;;;23.60;99.90;;;;;;12544643;28;19936;-35
2023/10/02 12:38:03;;;;;;;;;;;23.80;99.90;;;;;;12555172;28;19928;-35
2023/10/02 12:44:07;;;;;;;;;;;24.00;99.90;;;;;;12517291;28;19924;-35
2023/10/02 12:50:10;;;;;;;;;;;24.00;99.90;;;;;;12550265;28;19924;-36
2023/10/02 12:56:18;;;;;;;;;;;23.80;99.90;;;;;;12540085;28;19932;-35
2023/10/02 13:02:20;;;;;;;;;;;23.80;99.90;;;;;;12545767;28;19959;-35
2023/10/02 13:08:22;;;;;;;;;;;23.60;99.90;;;;;;12545562;28;19933;-35
2023/10/02 13:14:24;;;;;;;;;;;23.50;99.90;;;;;;12541975;28;20445;-36
2023/10/02 13:20:26;;;;;;;;;;;23.30;99.90;;;;;;12546931;28;19928;-35
2023/10/02 13:26:28;;;;;;;;;;;23.20;99.90;;;;;;12544636;28;19959;-35
2023/10/02 13:32:30;;;;;;;;;;;23.00;99.90;;;;;;12549513;28;19971;-35
2023/10/02 13:38:32;;;;;;;;;;;22.90;99.90;;;;;;12546162;28;19936;-35
2023/10/02 13:44:34;;;;;;;;;;;22.80;99.90;;;;;;12537699;28;19955;-36
2023/10/02 13:50:37;;;;;;;;;;;22.70;99.90;;;;;;12548651;28;19939;-36
2023/10/02 13:57:02;;;;;;;;;;;22.70;99.90;;;;;;12532511;28;19994;-35
2023/10/02 14:03:06;;;;;;;;;;;22.70;99.90;;;;;;12546907;28;19932;-35
2023/10/02 14:09:10;;;;;;;;;;;22.70;99.90;;;;;;12547163;28;20474;-35
2023/10/02 14:15:19;;;;;;;;;;;22.60;99.90;;;;;;12548022;28;20621;-35
2023/10/02 14:21:22;;;;;;;;;;;22.60;99.90;;;;;;12544015;28;19936;-35
2023/10/02 14:27:23;;;;;;;;;;;22.50;99.90;;;;;;12546333;28;19925;-35
2023/10/02 14:33:25;;;;;;;;;;;22.50;99.90;;;;;;12546539;28;19928;-35
2023/10/02 14:39:30;;;;;;;;;;;22.40;99.90;;;;;;12540941;28;19924;-35
2023/10/02 14:45:33;;;;;;;;;;;22.30;99.90;;;;;;12506380;28;20525;-35
2023/10/02 14:51:37;;;;;;;;;;;22.30;99.90;;;;;;12537981;28;20385;-35
2023/10/02 14:57:38;;;;;;;;;;;22.20;99.90;;;;;;12524753;28;20023;-35
2023/10/02 15:03:40;;;;;;;;;;;22.30;99.90;;;;;;12544296;28;20982;-35
2023/10/02 15:09:43;;;;;;;;;;;22.30;99.90;;;;;;12547928;28;20012;-35
2023/10/02 15:15:44;;;;;;;;;;;22.20;99.90;;;;;;12552782;28;19934;-35
2023/10/02 15:21:46;;;;;;;;;;;22.20;99.90;;;;;;12528116;28;20496;-35
2023/10/02 15:27:49;;;;;;;;;;;22.20;99.90;;;;;;12526176;28;19932;-36
2023/10/02 15:33:52;;;;;;;;;;;22.10;99.90;;;;;;12515508;28;19928;-35
2023/10/02 15:39:54;;;;;;;;;;;22.20;99.90;;;;;;12548772;28;19982;-35
2023/10/02 15:45:58;;;;;;;;;;;22.10;99.90;;;;;;12512384;28;19936;-35
2023/10/02 15:52:00;;;;;;;;;;;22.00;99.90;;;;;;12530314;28;20304;-35
2023/10/02 15:58:02;;;;;;;;;;;21.90;99.90;;;;;;12548720;28;20339;-35
2023/10/02 16:04:04;;;;;;;;;;;21.80;99.90;;;;;;12544915;28;20083;-35
2023/10/02 16:10:13;;;;;;;;;;;21.60;99.90;;;;;;12553437;28;19951;-36
2023/10/02 16:16:15;;;;;;;;;;;21.50;99.90;;;;;;12532204;28;20332;-35
2023/10/02 16:22:16;;;;;;;;;;;21.30;99.90;;;;;;12550140;28;19932;-35
2023/10/02 16:28:19;;;;;;;;;;;21.20;99.90;;;;;;12551133;28;19929;-35
2023/10/02 16:34:21;;;;;;;;;;;21.10;99.90;;;;;;12550064;28;19929;-35
2023/10/02 16:40:23;;;;;;;;;;;21.20;99.90;;;;;;12550970;28;20007;-35
2023/10/02 16:46:25;;;;;;;;;;;21.10;99.90;;;;;;12510784;28;19967;-35
2023/10/02 16:52:27;;;;;;;;;;;20.80;99.90;;;;;;12547420;28;19983;-35
2023/10/02 16:58:29;;;;;;;;;;;20.60;99.90;;;;;;12537242;28;20448;-35
2023/10/02 17:04:30;;;;;;;;;;;20.20;99.90;;;;;;12543565;28;19933;-35
2023/10/02 17:10:32;;;;;;;;;;;20.10;99.90;;;;;;12543375;28;20795;-35
2023/10/02 17:16:34;;;;;;;;;;;20.00;99.90;;;;;;12546968;28;19968;-35
2023/10/02 17:22:37;;;;;;;;;;;20.00;99.90;;;;;;12541229;28;19935;-35
2023/10/02 17:28:38;;;;;;;;;;;20.00;99.90;;;;;;12543623;28;19924;-35
2023/10/02 17:34:40;;;;;;;;;;;19.80;99.90;;;;;;12534364;28;19929;-35
2023/10/02 17:40:42;;;;;;;;;;;19.70;99.90;;;;;;12543756;28;20351;-35
2023/10/02 17:46:44;;;;;;;;;;;19.50;99.90;;;;;;12517742;28;19932;-35
2023/10/02 17:52:46;;;;;;;;;;;19.50;99.90;;;;;;12535189;28;20464;-35
2023/10/02 17:58:48;;;;;;;;;;;19.60;99.90;;;;;;12541777;28;20416;-35
2023/10/02 18:04:53;;;;;;;;;;;19.60;99.90;;;;;;12537100;28;19967;-35
2023/10/02 18:10:55;;;;;;;;;;;19.70;99.90;;;;;;12547824;28;21199;-35
2023/10/02 18:16:57;;;;;;;;;;;19.80;99.90;;;;;;12538439;28;19997;-35
2023/10/02 18:22:58;;;;;;;;;;;19.90;99.90;;;;;;12547649;28;19986;-35
2023/10/02 18:29:00;;;;;;;;;;;20.00;99.90;;;;;;12550031;28;19929;-35
2023/10/02 18:35:04;;;;;;;;;;;20.10;99.90;;;;;;12552103;28;20352;-35
2023/10/02 18:41:11;;;;;;;;;;;20.10;99.90;;;;;;12551269;28;19935;-35
2023/10/02 18:47:23;;;;;;;;;;;20.20;99.90;;;;;;12529165;28;20584;-35
2023/10/02 18:53:37;;;;;;;;;;;20.30;99.90;;;;;;12566051;28;19925;-35
2023/10/02 18:59:50;;;;;;;;;;;20.60;99.90;;;;;;12574522;28;19967;-35
2023/10/02 19:06:02;;;;;;;;;;;20.30;99.90;;;;;;12578316;28;19931;-35
2023/10/02 19:12:19;;;;;;;;;;;20.20;99.90;;;;;;12590023;28;19936;-34
2023/10/02 19:18:39;;;;;;;;;;;19.90;99.90;;;;;;12580378;28;20573;-35
2023/10/02 19:24:52;;;;;;;;;;;19.70;99.90;;;;;;12579196;28;19940;-35
2023/10/02 19:30:58;;;;;;;;;;;19.70;99.90;;;;;;12587105;28;20399;-35
2023/10/02 19:37:11;;;;;;;;;;;19.60;99.90;;;;;;12581101;28;19978;-35
2023/10/02 19:43:21;;;;;;;;;;;19.60;99.90;;;;;;12582279;28;19924;-35
2023/10/02 19:49:35;;;;;;;;;;;19.50;99.90;;;;;;12578177;28;19955;-35
2023/10/02 19:55:51;;;;;;;;;;;19.40;99.90;;;;;;12577085;28;19968;-35
2023/10/02 20:02:06;;;;;;;;;;;19.40;99.90;;;;;;12560806;28;19925;-35
2023/10/02 20:08:22;;;;;;;;;;;19.30;99.90;;;;;;12577792;28;20027;-35
2023/10/02 20:14:43;;;;;;;;;;;19.30;99.90;;;;;;12578467;28;19954;-35
2023/10/02 20:21:04;;;;;;;;;;;19.30;99.90;;;;;;12574148;28;20227;-35
2023/10/02 20:27:23;;;;;;;;;;;19.20;99.90;;;;;;12575401;28;19929;-35
2023/10/02 20:33:38;;;;;;;;;;;19.00;99.90;;;;;;12574423;28;19947;-34
2023/10/02 20:39:48;;;;;;;;;;;19.00;99.90;;;;;;12575993;28;19929;-34
2023/10/02 20:45:59;;;;;;;;;;;19.00;99.90;;;;;;12574025;28;19963;-34
2023/10/02 20:52:13;;;;;;;;;;;18.90;99.90;;;;;;12577594;28;20016;-35
2023/10/02 20:58:22;;;;;;;;;;;18.60;99.90;;;;;;12559005;28;20008;-35
2023/10/02 21:04:34;;;;;;;;;;;18.60;99.90;;;;;;12576723;28;20023;-35
2023/10/02 21:10:43;;;;;;;;;;;18.60;99.90;;;;;;12584223;28;19925;-35
2023/10/02 21:16:54;;;;;;;;;;;18.60;99.90;;;;;;12574224;28;20023;-35
2023/10/02 21:23:09;;;;;;;;;;;18.60;99.90;;;;;;12544641;28;19928;-35
2023/10/02 21:29:27;;;;;;;;;;;18.40;99.90;;;;;;12578944;28;19935;-34
2023/10/02 21:35:54;;;;;;;;;;;18.30;99.90;;;;;;12578344;28;19924;-34
2023/10/02 21:42:11;;;;;;;;;;;18.30;99.90;;;;;;12568336;28;20051;-35
2023/10/02 21:48:27;;;;;;;;;;;18.40;99.90;;;;;;12583759;28;19928;-34
2023/10/02 21:54:42;;;;;;;;;;;18.40;99.90;;;;;;12556247;28;20505;-34
2023/10/02 22:00:52;;;;;;;;;;;18.40;99.90;;;;;;12579768;28;19932;-35
2023/10/02 22:07:00;;;;;;;;;;;18.30;99.90;;;;;;12574274;28;20664;-34
2023/10/02 22:13:17;;;;;;;;;;;18.00;99.90;;;;;;12571368;28;20204;-35
2023/10/02 22:19:28;;;;;;;;;;;17.70;99.90;;;;;;12570810;28;19932;-35
2023/10/02 22:25:44;;;;;;;;;;;17.90;99.90;;;;;;12568195;28;19932;-35
2023/10/02 22:31:59;;;;;;;;;;;18.10;99.90;;;;;;12563417;28;19932;-34
2023/10/02 22:38:20;;;;;;;;;;;17.90;99.90;;;;;;12571494;28;19971;-34
2023/10/02 22:44:44;;;;;;;;;;;17.80;99.90;;;;;;12556634;28;19928;-34
2023/10/02 22:50:56;;;;;;;;;;;17.70;99.90;;;;;;12554993;28;19928;-34
2023/10/02 22:57:15;;;;;;;;;;;17.80;99.90;;;;;;12573746;28;20388;-34
2023/10/02 23:03:26;;;;;;;;;;;17.70;99.90;;;;;;12563598;28;20307;-34
2023/10/02 23:09:40;;;;;;;;;;;17.50;99.90;;;;;;12572157;28;19925;-34
2023/10/02 23:15:47;;;;;;;;;;;17.50;99.90;;;;;;12567918;28;19971;-34
2023/10/02 23:22:00;;;;;;;;;;;17.60;99.90;;;;;;12564203;28;19936;-34
2023/10/02 23:28:15;;;;;;;;;;;17.60;99.90;;;;;;12615005;28;19928;-34
2023/10/02 23:34:45;;;;;;;;;;;17.70;99.90;;;;;;12624422;28;19932;-34
2023/10/02 23:40:49;;;;;;;;;;;17.80;99.90;;;;;;12615903;28;19978;-35
2023/10/02 23:47:06;;;;;;;;;;;17.60;99.90;;;;;;12615900;28;20076;-35
2023/10/02 23:53:26;;;;;;;;;;;17.60;99.90;;;;;;12603968;28;19925;-34
2023/10/02 23:59:43;;;;;;;;;;;17.60;99.90;;;;;;12628346;28;20626;-34
